sensor_id;sensor_type;location;lat;lon;timestamp;P1;durP1;ratioP1;P2;durP2;ratioP2
32198;SDS011;19221;42.656;21.156;2023-06-22T00:01:55;20.70;;;16.88;;
32198;SDS011;19221;42.656;21.156;2023-06-22T00:04:20;22.52;;;16.38;;
32198;SDS011;19221;42.656;21.156;2023-06-22T00:06:46;20.25;;;17.15;;
32198;SDS011;19221;42.656;21.156;2023-06-22T00:09:12;22.30;;;16.88;;
32198;SDS011;19221;42.656;21.156;2023-06-22T00:11:37;23.35;;;16.17;;
32198;SDS011;19221;42.656;21.156;2023-06-22T00:14:03;19.17;;;15.77;;
32198;SDS011;19221;42.656;21.156;2023-06-22T00:16:30;20.30;;;15.35;;
32198;SDS011;19221;42.656;21.156;2023-06-22T00:18:56;22.90;;;16.25;;
32198;SDS011;19221;42.656;21.156;2023-06-22T00:21:23;19.35;;;16.80;;
32198;SDS011;19221;42.656;21.156;2023-06-22T00:23:49;19.80;;;15.98;;
32198;SDS011;19221;42.656;21.156;2023-06-22T00:26:14;19.52;;;16.15;;
32198;SDS011;19221;42.656;21.156;2023-06-22T00:28:40;20.55;;;16.73;;
32198;SDS011;19221;42.656;21.156;2023-06-22T00:31:06;26.00;;;17.13;;
32198;SDS011;19221;42.656;21.156;2023-06-22T00:33:31;19.80;;;15.57;;
32198;SDS011;19221;42.656;21.156;2023-06-22T00:35:58;18.75;;;16.08;;
32198;SDS011;19221;42.656;21.156;2023-06-22T00:38:24;21.25;;;16.20;;
32198;SDS011;19221;42.656;21.156;2023-06-22T00:40:50;20.10;;;15.43;;
32198;SDS011;19221;42.656;21.156;2023-06-22T00:43:15;19.20;;;15.90;;
32198;SDS011;19221;42.656;21.156;2023-06-22T00:45:41;19.30;;;16.40;;
32198;SDS011;19221;42.656;21.156;2023-06-22T00:48:07;18.58;;;16.23;;
32198;SDS011;19221;42.656;21.156;2023-06-22T00:50:33;19.40;;;15.35;;
32198;SDS011;19221;42.656;21.156;2023-06-22T00:53:04;19.45;;;15.82;;
32198;SDS011;19221;42.656;21.156;2023-06-22T00:55:35;18.42;;;16.42;;
32198;SDS011;19221;42.656;21.156;2023-06-22T00:58:03;21.00;;;16.70;;
32198;SDS011;19221;42.656;21.156;2023-06-22T01:00:31;20.98;;;16.83;;
32198;SDS011;19221;42.656;21.156;2023-06-22T01:02:58;20.95;;;16.55;;
32198;SDS011;19221;42.656;21.156;2023-06-22T01:05:23;24.85;;;18.55;;
32198;SDS011;19221;42.656;21.156;2023-06-22T01:10:33;24.13;;;18.05;;
32198;SDS011;19221;42.656;21.156;2023-06-22T01:13:04;23.38;;;18.42;;
32198;SDS011;19221;42.656;21.156;2023-06-22T01:15:40;23.80;;;18.48;;
32198;SDS011;19221;42.656;21.156;2023-06-22T01:18:08;22.73;;;18.25;;
32198;SDS011;19221;42.656;21.156;2023-06-22T01:20:34;23.77;;;18.27;;
32198;SDS011;19221;42.656;21.156;2023-06-22T01:23:09;22.65;;;18.85;;
32198;SDS011;19221;42.656;21.156;2023-06-22T01:25:38;23.83;;;18.73;;
32198;SDS011;19221;42.656;21.156;2023-06-22T01:28:16;20.50;;;17.27;;
32198;SDS011;19221;42.656;21.156;2023-06-22T01:30:45;27.55;;;17.25;;
32198;SDS011;19221;42.656;21.156;2023-06-22T01:33:11;22.13;;;17.83;;
32198;SDS011;19221;42.656;21.156;2023-06-22T01:35:38;21.25;;;17.88;;
32198;SDS011;19221;42.656;21.156;2023-06-22T01:38:04;19.58;;;17.02;;
32198;SDS011;19221;42.656;21.156;2023-06-22T01:40:30;24.23;;;17.23;;
32198;SDS011;19221;42.656;21.156;2023-06-22T01:42:57;21.73;;;16.90;;
32198;SDS011;19221;42.656;21.156;2023-06-22T01:45:27;20.53;;;16.87;;
32198;SDS011;19221;42.656;21.156;2023-06-22T01:47:53;23.33;;;19.08;;
32198;SDS011;19221;42.656;21.156;2023-06-22T01:50:19;21.67;;;17.50;;
32198;SDS011;19221;42.656;21.156;2023-06-22T01:52:45;20.27;;;17.23;;
32198;SDS011;19221;42.656;21.156;2023-06-22T01:55:11;20.65;;;17.95;;
32198;SDS011;19221;42.656;21.156;2023-06-22T01:57:36;26.20;;;17.85;;
32198;SDS011;19221;42.656;21.156;2023-06-22T02:00:07;21.17;;;17.63;;
32198;SDS011;19221;42.656;21.156;2023-06-22T02:02:42;22.60;;;17.73;;
32198;SDS011;19221;42.656;21.156;2023-06-22T02:05:08;21.48;;;17.10;;
32198;SDS011;19221;42.656;21.156;2023-06-22T02:07:39;27.73;;;18.23;;
32198;SDS011;19221;42.656;21.156;2023-06-22T02:10:07;20.52;;;17.33;;
32198;SDS011;19221;42.656;21.156;2023-06-22T02:12:34;24.33;;;17.70;;
32198;SDS011;19221;42.656;21.156;2023-06-22T02:15:00;20.70;;;17.35;;
32198;SDS011;19221;42.656;21.156;2023-06-22T02:17:26;19.88;;;16.67;;
32198;SDS011;19221;42.656;21.156;2023-06-22T02:19:52;22.15;;;17.80;;
32198;SDS011;19221;42.656;21.156;2023-06-22T02:22:17;19.40;;;17.27;;
32198;SDS011;19221;42.656;21.156;2023-06-22T02:24:43;23.27;;;17.00;;
32198;SDS011;19221;42.656;21.156;2023-06-22T02:27:09;19.55;;;17.42;;
32198;SDS011;19221;42.656;21.156;2023-06-22T02:29:36;20.85;;;16.63;;
32198;SDS011;19221;42.656;21.156;2023-06-22T02:32:02;22.30;;;17.38;;
32198;SDS011;19221;42.656;21.156;2023-06-22T02:34:27;23.70;;;17.33;;
32198;SDS011;19221;42.656;21.156;2023-06-22T02:36:53;22.05;;;15.65;;
32198;SDS011;19221;42.656;21.156;2023-06-22T02:39:20;19.05;;;16.42;;
32198;SDS011;19221;42.656;21.156;2023-06-22T02:41:46;20.70;;;17.20;;
32198;SDS011;19221;42.656;21.156;2023-06-22T02:44:11;18.40;;;16.42;;
32198;SDS011;19221;42.656;21.156;2023-06-22T02:46:37;20.58;;;16.63;;
32198;SDS011;19221;42.656;21.156;2023-06-22T02:49:03;21.40;;;16.65;;
32198;SDS011;19221;42.656;21.156;2023-06-22T02:51:28;23.40;;;16.25;;
32198;SDS011;19221;42.656;21.156;2023-06-22T02:53:54;20.08;;;16.77;;
32198;SDS011;19221;42.656;21.156;2023-06-22T02:56:22;20.80;;;18.13;;
32198;SDS011;19221;42.656;21.156;2023-06-22T02:58:51;19.80;;;17.10;;
32198;SDS011;19221;42.656;21.156;2023-06-22T03:01:16;21.33;;;16.90;;
32198;SDS011;19221;42.656;21.156;2023-06-22T03:03:42;21.42;;;17.52;;
32198;SDS011;19221;42.656;21.156;2023-06-22T03:06:07;21.52;;;17.88;;
32198;SDS011;19221;42.656;21.156;2023-06-22T03:08:34;22.98;;;18.38;;
32198;SDS011;19221;42.656;21.156;2023-06-22T03:11:00;21.58;;;17.75;;
32198;SDS011;19221;42.656;21.156;2023-06-22T03:13:26;28.38;;;18.50;;
32198;SDS011;19221;42.656;21.156;2023-06-22T03:15:52;23.30;;;18.42;;
32198;SDS011;19221;42.656;21.156;2023-06-22T03:18:18;22.88;;;18.67;;
32198;SDS011;19221;42.656;21.156;2023-06-22T03:20:43;24.25;;;19.30;;
32198;SDS011;19221;42.656;21.156;2023-06-22T03:23:09;24.48;;;20.17;;
32198;SDS011;19221;42.656;21.156;2023-06-22T03:25:35;29.17;;;22.60;;
32198;SDS011;19221;42.656;21.156;2023-06-22T03:28:01;31.13;;;22.75;;
32198;SDS011;19221;42.656;21.156;2023-06-22T03:30:26;30.08;;;21.02;;
32198;SDS011;19221;42.656;21.156;2023-06-22T03:32:52;23.23;;;18.02;;
32198;SDS011;19221;42.656;21.156;2023-06-22T03:35:18;21.33;;;17.42;;
32198;SDS011;19221;42.656;21.156;2023-06-22T03:37:44;23.77;;;18.50;;
32198;SDS011;19221;42.656;21.156;2023-06-22T03:40:10;23.17;;;18.73;;
32198;SDS011;19221;42.656;21.156;2023-06-22T03:42:35;26.20;;;21.23;;
32198;SDS011;19221;42.656;21.156;2023-06-22T03:45:02;26.98;;;22.23;;
32198;SDS011;19221;42.656;21.156;2023-06-22T03:47:28;21.88;;;18.83;;
32198;SDS011;19221;42.656;21.156;2023-06-22T03:49:54;20.55;;;16.98;;
32198;SDS011;19221;42.656;21.156;2023-06-22T03:52:22;21.35;;;17.20;;
32198;SDS011;19221;42.656;21.156;2023-06-22T03:54:48;19.77;;;15.57;;
32198;SDS011;19221;42.656;21.156;2023-06-22T03:57:14;20.42;;;16.20;;
32198;SDS011;19221;42.656;21.156;2023-06-22T03:59:40;18.90;;;16.13;;
32198;SDS011;19221;42.656;21.156;2023-06-22T04:02:05;19.17;;;15.30;;
32198;SDS011;19221;42.656;21.156;2023-06-22T04:04:31;17.38;;;15.43;;
32198;SDS011;19221;42.656;21.156;2023-06-22T04:06:56;19.33;;;16.20;;
32198;SDS011;19221;42.656;21.156;2023-06-22T04:09:22;27.90;;;21.58;;
32198;SDS011;19221;42.656;21.156;2023-06-22T04:11:48;27.60;;;21.65;;
32198;SDS011;19221;42.656;21.156;2023-06-22T04:14:13;27.48;;;21.00;;
32198;SDS011;19221;42.656;21.156;2023-06-22T04:16:39;24.42;;;20.90;;
32198;SDS011;19221;42.656;21.156;2023-06-22T04:19:05;21.33;;;17.40;;
32198;SDS011;19221;42.656;21.156;2023-06-22T04:21:31;19.70;;;16.48;;
32198;SDS011;19221;42.656;21.156;2023-06-22T04:23:56;19.85;;;15.60;;
32198;SDS011;19221;42.656;21.156;2023-06-22T04:26:22;16.65;;;13.85;;
32198;SDS011;19221;42.656;21.156;2023-06-22T04:28:48;16.40;;;14.57;;
32198;SDS011;19221;42.656;21.156;2023-06-22T04:31:17;16.05;;;14.32;;
32198;SDS011;19221;42.656;21.156;2023-06-22T04:33:44;17.13;;;14.48;;
32198;SDS011;19221;42.656;21.156;2023-06-22T04:36:10;17.75;;;15.52;;
32198;SDS011;19221;42.656;21.156;2023-06-22T04:38:39;16.17;;;14.45;;
32198;SDS011;19221;42.656;21.156;2023-06-22T04:41:04;19.55;;;15.27;;
32198;SDS011;19221;42.656;21.156;2023-06-22T04:43:30;21.13;;;15.40;;
32198;SDS011;19221;42.656;21.156;2023-06-22T04:45:56;18.17;;;14.93;;
32198;SDS011;19221;42.656;21.156;2023-06-22T04:48:29;23.75;;;17.85;;
32198;SDS011;19221;42.656;21.156;2023-06-22T04:51:01;20.25;;;15.98;;
32198;SDS011;19221;42.656;21.156;2023-06-22T04:53:29;23.90;;;16.63;;
32198;SDS011;19221;42.656;21.156;2023-06-22T04:55:55;22.42;;;17.60;;
32198;SDS011;19221;42.656;21.156;2023-06-22T04:58:21;23.80;;;17.63;;
32198;SDS011;19221;42.656;21.156;2023-06-22T05:00:47;23.23;;;17.65;;
32198;SDS011;19221;42.656;21.156;2023-06-22T05:03:12;25.33;;;16.55;;
32198;SDS011;19221;42.656;21.156;2023-06-22T05:05:38;23.48;;;17.02;;
32198;SDS011;19221;42.656;21.156;2023-06-22T05:08:04;24.73;;;16.50;;
32198;SDS011;19221;42.656;21.156;2023-06-22T05:10:34;26.10;;;17.52;;
32198;SDS011;19221;42.656;21.156;2023-06-22T05:13:00;23.00;;;17.58;;
32198;SDS011;19221;42.656;21.156;2023-06-22T05:15:25;25.63;;;17.90;;
32198;SDS011;19221;42.656;21.156;2023-06-22T05:17:55;26.67;;;17.55;;
32198;SDS011;19221;42.656;21.156;2023-06-22T05:20:21;26.73;;;18.08;;
32198;SDS011;19221;42.656;21.156;2023-06-22T05:22:47;24.90;;;17.98;;
32198;SDS011;19221;42.656;21.156;2023-06-22T05:25:13;24.33;;;19.55;;
32198;SDS011;19221;42.656;21.156;2023-06-22T05:27:38;26.65;;;20.00;;
32198;SDS011;19221;42.656;21.156;2023-06-22T05:30:07;24.50;;;18.73;;
32198;SDS011;19221;42.656;21.156;2023-06-22T05:32:33;23.75;;;18.40;;
32198;SDS011;19221;42.656;21.156;2023-06-22T05:34:59;26.10;;;18.88;;
32198;SDS011;19221;42.656;21.156;2023-06-22T05:37:25;26.55;;;19.75;;
32198;SDS011;19221;42.656;21.156;2023-06-22T05:39:51;27.60;;;19.73;;
32198;SDS011;19221;42.656;21.156;2023-06-22T05:42:17;26.83;;;19.33;;
32198;SDS011;19221;42.656;21.156;2023-06-22T05:44:43;32.65;;;19.55;;
32198;SDS011;19221;42.656;21.156;2023-06-22T05:47:08;25.63;;;16.73;;
32198;SDS011;19221;42.656;21.156;2023-06-22T05:49:34;18.25;;;16.10;;
32198;SDS011;19221;42.656;21.156;2023-06-22T05:52:00;18.75;;;16.02;;
32198;SDS011;19221;42.656;21.156;2023-06-22T05:54:27;20.48;;;16.20;;
32198;SDS011;19221;42.656;21.156;2023-06-22T05:56:53;19.83;;;15.95;;
32198;SDS011;19221;42.656;21.156;2023-06-22T05:59:19;20.45;;;16.20;;
32198;SDS011;19221;42.656;21.156;2023-06-22T06:01:44;17.48;;;15.48;;
32198;SDS011;19221;42.656;21.156;2023-06-22T06:04:10;19.80;;;16.10;;
32198;SDS011;19221;42.656;21.156;2023-06-22T06:06:35;20.30;;;16.13;;
32198;SDS011;19221;42.656;21.156;2023-06-22T06:09:03;21.25;;;15.70;;
32198;SDS011;19221;42.656;21.156;2023-06-22T06:11:29;19.08;;;16.35;;
32198;SDS011;19221;42.656;21.156;2023-06-22T06:13:55;23.02;;;16.02;;
32198;SDS011;19221;42.656;21.156;2023-06-22T06:16:21;19.55;;;16.02;;
32198;SDS011;19221;42.656;21.156;2023-06-22T06:18:47;23.45;;;16.95;;
32198;SDS011;19221;42.656;21.156;2023-06-22T06:21:14;22.00;;;15.77;;
32198;SDS011;19221;42.656;21.156;2023-06-22T06:23:39;21.83;;;17.27;;
32198;SDS011;19221;42.656;21.156;2023-06-22T06:26:05;24.02;;;17.02;;
32198;SDS011;19221;42.656;21.156;2023-06-22T06:28:32;24.63;;;17.65;;
32198;SDS011;19221;42.656;21.156;2023-06-22T06:30:58;22.17;;;17.13;;
32198;SDS011;19221;42.656;21.156;2023-06-22T06:33:24;22.50;;;17.52;;
32198;SDS011;19221;42.656;21.156;2023-06-22T06:35:49;21.73;;;17.10;;
32198;SDS011;19221;42.656;21.156;2023-06-22T06:38:15;22.35;;;16.60;;
32198;SDS011;19221;42.656;21.156;2023-06-22T06:40:41;23.13;;;17.10;;
32198;SDS011;19221;42.656;21.156;2023-06-22T06:43:07;23.27;;;17.40;;
32198;SDS011;19221;42.656;21.156;2023-06-22T06:45:32;23.73;;;17.27;;
32198;SDS011;19221;42.656;21.156;2023-06-22T06:47:59;28.33;;;17.30;;
32198;SDS011;19221;42.656;21.156;2023-06-22T06:50:25;22.27;;;17.40;;
32198;SDS011;19221;42.656;21.156;2023-06-22T06:52:51;24.17;;;17.52;;
32198;SDS011;19221;42.656;21.156;2023-06-22T06:55:17;28.80;;;17.85;;
32198;SDS011;19221;42.656;21.156;2023-06-22T06:57:42;24.15;;;18.08;;
32198;SDS011;19221;42.656;21.156;2023-06-22T07:00:09;24.83;;;18.10;;
32198;SDS011;19221;42.656;21.156;2023-06-22T07:02:40;22.52;;;17.48;;
32198;SDS011;19221;42.656;21.156;2023-06-22T07:05:07;19.95;;;17.80;;
32198;SDS011;19221;42.656;21.156;2023-06-22T07:07:32;21.50;;;17.15;;
32198;SDS011;19221;42.656;21.156;2023-06-22T07:09:58;23.30;;;18.02;;
32198;SDS011;19221;42.656;21.156;2023-06-22T07:12:24;22.88;;;16.98;;
32198;SDS011;19221;42.656;21.156;2023-06-22T07:14:50;21.45;;;16.48;;
32198;SDS011;19221;42.656;21.156;2023-06-22T07:17:16;19.80;;;15.90;;
32198;SDS011;19221;42.656;21.156;2023-06-22T07:19:42;24.10;;;16.15;;
32198;SDS011;19221;42.656;21.156;2023-06-22T07:22:07;23.05;;;15.85;;
32198;SDS011;19221;42.656;21.156;2023-06-22T07:24:33;20.10;;;16.73;;
32198;SDS011;19221;42.656;21.156;2023-06-22T07:26:59;18.05;;;16.13;;
32198;SDS011;19221;42.656;21.156;2023-06-22T07:29:25;24.30;;;16.58;;
32198;SDS011;19221;42.656;21.156;2023-06-22T07:31:52;18.10;;;15.15;;
32198;SDS011;19221;42.656;21.156;2023-06-22T07:34:18;17.30;;;15.30;;
32198;SDS011;19221;42.656;21.156;2023-06-22T07:36:44;24.02;;;15.40;;
32198;SDS011;19221;42.656;21.156;2023-06-22T07:39:09;22.55;;;15.65;;
32198;SDS011;19221;42.656;21.156;2023-06-22T07:41:35;22.77;;;15.73;;
32198;SDS011;19221;42.656;21.156;2023-06-22T07:44:02;16.88;;;13.20;;
32198;SDS011;19221;42.656;21.156;2023-06-22T07:46:28;13.70;;;12.25;;
32198;SDS011;19221;42.656;21.156;2023-06-22T07:48:56;17.00;;;13.18;;
32198;SDS011;19221;42.656;21.156;2023-06-22T07:51:21;14.02;;;12.32;;
32198;SDS011;19221;42.656;21.156;2023-06-22T07:53:47;16.33;;;12.65;;
32198;SDS011;19221;42.656;21.156;2023-06-22T07:56:13;15.30;;;13.15;;
32198;SDS011;19221;42.656;21.156;2023-06-22T07:58:39;18.70;;;13.10;;
32198;SDS011;19221;42.656;21.156;2023-06-22T08:01:04;15.40;;;12.75;;
32198;SDS011;19221;42.656;21.156;2023-06-22T08:03:31;17.75;;;12.80;;
32198;SDS011;19221;42.656;21.156;2023-06-22T08:05:57;14.55;;;12.38;;
32198;SDS011;19221;42.656;21.156;2023-06-22T08:08:23;13.75;;;11.80;;
32198;SDS011;19221;42.656;21.156;2023-06-22T08:10:49;13.27;;;10.77;;
32198;SDS011;19221;42.656;21.156;2023-06-22T08:13:14;13.57;;;11.30;;
32198;SDS011;19221;42.656;21.156;2023-06-22T08:15:40;13.63;;;11.98;;
32198;SDS011;19221;42.656;21.156;2023-06-22T08:18:06;13.02;;;10.93;;
32198;SDS011;19221;42.656;21.156;2023-06-22T08:20:31;11.90;;;9.55;;
32198;SDS011;19221;42.656;21.156;2023-06-22T08:22:58;15.13;;;9.90;;
32198;SDS011;19221;42.656;21.156;2023-06-22T08:25:26;15.48;;;10.93;;
32198;SDS011;19221;42.656;21.156;2023-06-22T08:27:51;13.07;;;10.98;;
32198;SDS011;19221;42.656;21.156;2023-06-22T08:30:17;12.50;;;8.60;;
32198;SDS011;19221;42.656;21.156;2023-06-22T08:32:44;11.43;;;10.05;;
32198;SDS011;19221;42.656;21.156;2023-06-22T08:35:10;11.30;;;8.65;;
32198;SDS011;19221;42.656;21.156;2023-06-22T08:37:35;9.77;;;8.70;;
32198;SDS011;19221;42.656;21.156;2023-06-22T08:40:05;9.02;;;8.02;;
32198;SDS011;19221;42.656;21.156;2023-06-22T08:42:31;9.73;;;8.57;;
32198;SDS011;19221;42.656;21.156;2023-06-22T08:44:56;13.43;;;8.90;;
32198;SDS011;19221;42.656;21.156;2023-06-22T08:47:22;11.35;;;9.70;;
32198;SDS011;19221;42.656;21.156;2023-06-22T08:49:48;13.90;;;9.65;;
32198;SDS011;19221;42.656;21.156;2023-06-22T08:52:14;13.77;;;10.00;;
32198;SDS011;19221;42.656;21.156;2023-06-22T08:54:40;10.98;;;9.23;;
32198;SDS011;19221;42.656;21.156;2023-06-22T08:57:06;10.27;;;9.10;;
32198;SDS011;19221;42.656;21.156;2023-06-22T08:59:31;14.10;;;10.18;;
32198;SDS011;19221;42.656;21.156;2023-06-22T09:01:57;11.32;;;9.25;;
32198;SDS011;19221;42.656;21.156;2023-06-22T09:04:23;13.15;;;9.25;;
32198;SDS011;19221;42.656;21.156;2023-06-22T09:06:49;11.40;;;8.50;;
32198;SDS011;19221;42.656;21.156;2023-06-22T09:09:17;10.70;;;8.73;;
32198;SDS011;19221;42.656;21.156;2023-06-22T09:11:43;14.48;;;8.80;;
32198;SDS011;19221;42.656;21.156;2023-06-22T09:14:10;10.90;;;9.38;;
32198;SDS011;19221;42.656;21.156;2023-06-22T09:16:36;15.65;;;9.50;;
32198;SDS011;19221;42.656;21.156;2023-06-22T09:19:02;10.95;;;8.77;;
32198;SDS011;19221;42.656;21.156;2023-06-22T09:21:27;11.85;;;8.88;;
32198;SDS011;19221;42.656;21.156;2023-06-22T09:23:53;13.48;;;9.43;;
32198;SDS011;19221;42.656;21.156;2023-06-22T09:26:19;13.55;;;9.20;;
32198;SDS011;19221;42.656;21.156;2023-06-22T09:28:45;10.80;;;9.15;;
32198;SDS011;19221;42.656;21.156;2023-06-22T09:31:10;11.27;;;8.73;;
32198;SDS011;19221;42.656;21.156;2023-06-22T09:33:36;13.65;;;10.57;;
32198;SDS011;19221;42.656;21.156;2023-06-22T09:36:06;12.82;;;9.07;;
32198;SDS011;19221;42.656;21.156;2023-06-22T09:38:36;16.00;;;8.95;;
32198;SDS011;19221;42.656;21.156;2023-06-22T09:41:01;9.70;;;8.40;;
32198;SDS011;19221;42.656;21.156;2023-06-22T09:43:27;19.67;;;8.77;;
32198;SDS011;19221;42.656;21.156;2023-06-22T09:45:53;12.43;;;8.77;;
32198;SDS011;19221;42.656;21.156;2023-06-22T09:48:19;15.45;;;9.23;;
32198;SDS011;19221;42.656;21.156;2023-06-22T09:50:44;15.43;;;10.20;;
32198;SDS011;19221;42.656;21.156;2023-06-22T09:53:10;11.02;;;8.25;;
32198;SDS011;19221;42.656;21.156;2023-06-22T09:55:36;12.50;;;9.35;;
32198;SDS011;19221;42.656;21.156;2023-06-22T09:58:01;15.70;;;10.18;;
32198;SDS011;19221;42.656;21.156;2023-06-22T10:00:27;14.48;;;10.60;;
32198;SDS011;19221;42.656;21.156;2023-06-22T10:02:53;16.55;;;10.65;;
32198;SDS011;19221;42.656;21.156;2023-06-22T10:05:19;13.90;;;9.27;;
32198;SDS011;19221;42.656;21.156;2023-06-22T10:07:46;14.07;;;8.80;;
32198;SDS011;19221;42.656;21.156;2023-06-22T10:10:12;15.63;;;10.95;;
32198;SDS011;19221;42.656;21.156;2023-06-22T10:12:41;10.20;;;8.07;;
32198;SDS011;19221;42.656;21.156;2023-06-22T10:15:08;8.70;;;7.80;;
32198;SDS011;19221;42.656;21.156;2023-06-22T10:17:33;11.18;;;8.85;;
32198;SDS011;19221;42.656;21.156;2023-06-22T10:20:00;10.48;;;7.75;;
32198;SDS011;19221;42.656;21.156;2023-06-22T10:22:26;11.43;;;7.63;;
32198;SDS011;19221;42.656;21.156;2023-06-22T10:24:51;11.25;;;7.80;;
32198;SDS011;19221;42.656;21.156;2023-06-22T10:27:17;8.90;;;8.00;;
32198;SDS011;19221;42.656;21.156;2023-06-22T10:29:43;13.45;;;9.02;;
32198;SDS011;19221;42.656;21.156;2023-06-22T10:32:09;14.68;;;9.85;;
32198;SDS011;19221;42.656;21.156;2023-06-22T10:34:35;12.73;;;8.80;;
32198;SDS011;19221;42.656;21.156;2023-06-22T10:37:00;10.07;;;8.20;;
32198;SDS011;19221;42.656;21.156;2023-06-22T10:39:26;10.65;;;8.20;;
32198;SDS011;19221;42.656;21.156;2023-06-22T10:41:52;12.95;;;7.40;;
32198;SDS011;19221;42.656;21.156;2023-06-22T10:44:17;8.68;;;7.20;;
32198;SDS011;19221;42.656;21.156;2023-06-22T10:46:43;9.23;;;8.18;;
32198;SDS011;19221;42.656;21.156;2023-06-22T10:49:09;8.80;;;7.63;;
32198;SDS011;19221;42.656;21.156;2023-06-22T10:51:34;12.07;;;8.40;;
32198;SDS011;19221;42.656;21.156;2023-06-22T10:54:00;13.70;;;7.53;;
32198;SDS011;19221;42.656;21.156;2023-06-22T10:56:26;9.40;;;7.10;;
32198;SDS011;19221;42.656;21.156;2023-06-22T10:58:51;10.13;;;7.00;;
32198;SDS011;19221;42.656;21.156;2023-06-22T11:01:17;10.50;;;6.95;;
32198;SDS011;19221;42.656;21.156;2023-06-22T11:03:44;11.43;;;7.95;;
32198;SDS011;19221;42.656;21.156;2023-06-22T11:06:10;11.93;;;9.00;;
32198;SDS011;19221;42.656;21.156;2023-06-22T11:08:35;11.10;;;7.68;;
32198;SDS011;19221;42.656;21.156;2023-06-22T11:11:01;7.82;;;6.95;;
32198;SDS011;19221;42.656;21.156;2023-06-22T11:13:26;9.57;;;7.10;;
32198;SDS011;19221;42.656;21.156;2023-06-22T11:15:52;10.48;;;8.38;;
32198;SDS011;19221;42.656;21.156;2023-06-22T11:18:18;11.60;;;7.93;;
32198;SDS011;19221;42.656;21.156;2023-06-22T11:20:43;11.13;;;9.30;;
32198;SDS011;19221;42.656;21.156;2023-06-22T11:23:09;11.00;;;8.90;;
32198;SDS011;19221;42.656;21.156;2023-06-22T11:25:35;13.30;;;8.85;;
32198;SDS011;19221;42.656;21.156;2023-06-22T11:28:02;11.25;;;8.75;;
32198;SDS011;19221;42.656;21.156;2023-06-22T11:30:27;9.93;;;8.43;;
32198;SDS011;19221;42.656;21.156;2023-06-22T11:32:53;10.00;;;8.23;;
32198;SDS011;19221;42.656;21.156;2023-06-22T11:35:19;19.52;;;8.57;;
32198;SDS011;19221;42.656;21.156;2023-06-22T11:37:44;12.65;;;9.15;;
32198;SDS011;19221;42.656;21.156;2023-06-22T11:40:10;11.13;;;9.15;;
32198;SDS011;19221;42.656;21.156;2023-06-22T11:42:36;13.15;;;8.23;;
32198;SDS011;19221;42.656;21.156;2023-06-22T11:45:02;9.90;;;6.20;;
32198;SDS011;19221;42.656;21.156;2023-06-22T11:47:27;11.82;;;7.30;;
32198;SDS011;19221;42.656;21.156;2023-06-22T11:49:53;7.70;;;6.65;;
32198;SDS011;19221;42.656;21.156;2023-06-22T11:52:19;9.07;;;7.22;;
32198;SDS011;19221;42.656;21.156;2023-06-22T11:54:45;9.45;;;8.38;;
32198;SDS011;19221;42.656;21.156;2023-06-22T11:57:11;12.45;;;9.23;;
32198;SDS011;19221;42.656;21.156;2023-06-22T11:59:37;12.05;;;8.05;;
32198;SDS011;19221;42.656;21.156;2023-06-22T12:02:03;14.82;;;8.70;;
32198;SDS011;19221;42.656;21.156;2023-06-22T12:04:30;8.50;;;6.50;;
32198;SDS011;19221;42.656;21.156;2023-06-22T12:06:56;11.68;;;7.90;;
32198;SDS011;19221;42.656;21.156;2023-06-22T12:09:22;8.55;;;7.15;;
32198;SDS011;19221;42.656;21.156;2023-06-22T12:11:47;8.52;;;7.00;;
32198;SDS011;19221;42.656;21.156;2023-06-22T12:16:38;9.13;;;6.65;;
32198;SDS011;19221;42.656;21.156;2023-06-22T12:19:04;9.80;;;7.00;;
32198;SDS011;19221;42.656;21.156;2023-06-22T12:21:30;8.35;;;6.97;;
32198;SDS011;19221;42.656;21.156;2023-06-22T12:23:55;7.85;;;6.80;;
32198;SDS011;19221;42.656;21.156;2023-06-22T12:26:21;8.23;;;6.20;;
32198;SDS011;19221;42.656;21.156;2023-06-22T12:28:47;12.57;;;6.75;;
32198;SDS011;19221;42.656;21.156;2023-06-22T12:31:13;7.05;;;6.25;;
32198;SDS011;19221;42.656;21.156;2023-06-22T12:33:39;7.80;;;6.57;;
32198;SDS011;19221;42.656;21.156;2023-06-22T12:36:05;11.48;;;6.65;;
32198;SDS011;19221;42.656;21.156;2023-06-22T12:38:31;11.45;;;7.72;;
32198;SDS011;19221;42.656;21.156;2023-06-22T12:40:56;9.23;;;6.80;;
32198;SDS011;19221;42.656;21.156;2023-06-22T12:43:22;10.88;;;7.40;;
32198;SDS011;19221;42.656;21.156;2023-06-22T12:45:47;13.60;;;7.68;;
32198;SDS011;19221;42.656;21.156;2023-06-22T12:48:13;9.65;;;7.28;;
32198;SDS011;19221;42.656;21.156;2023-06-22T12:50:39;8.57;;;7.32;;
32198;SDS011;19221;42.656;21.156;2023-06-22T12:53:04;10.55;;;7.18;;
32198;SDS011;19221;42.656;21.156;2023-06-22T12:55:31;7.53;;;6.68;;
32198;SDS011;19221;42.656;21.156;2023-06-22T12:57:57;10.20;;;6.68;;
32198;SDS011;19221;42.656;21.156;2023-06-22T13:00:24;7.55;;;6.70;;
32198;SDS011;19221;42.656;21.156;2023-06-22T13:02:50;10.48;;;7.22;;
32198;SDS011;19221;42.656;21.156;2023-06-22T13:05:15;9.35;;;7.07;;
32198;SDS011;19221;42.656;21.156;2023-06-22T13:07:41;8.35;;;6.90;;
32198;SDS011;19221;42.656;21.156;2023-06-22T13:10:08;8.52;;;6.80;;
32198;SDS011;19221;42.656;21.156;2023-06-22T13:12:34;9.00;;;6.43;;
32198;SDS011;19221;42.656;21.156;2023-06-22T13:14:59;8.55;;;6.72;;
32198;SDS011;19221;42.656;21.156;2023-06-22T13:17:25;10.52;;;6.85;;
32198;SDS011;19221;42.656;21.156;2023-06-22T13:19:51;9.52;;;7.18;;
32198;SDS011;19221;42.656;21.156;2023-06-22T13:24:51;8.88;;;6.90;;
32198;SDS011;19221;42.656;21.156;2023-06-22T13:27:17;9.57;;;7.22;;
32198;SDS011;19221;42.656;21.156;2023-06-22T13:29:42;11.07;;;7.13;;
32198;SDS011;19221;42.656;21.156;2023-06-22T13:32:08;9.32;;;6.20;;
32198;SDS011;19221;42.656;21.156;2023-06-22T13:34:34;11.88;;;7.00;;
32198;SDS011;19221;42.656;21.156;2023-06-22T13:36:59;11.98;;;6.78;;
32198;SDS011;19221;42.656;21.156;2023-06-22T13:39:25;11.75;;;6.45;;
32198;SDS011;19221;42.656;21.156;2023-06-22T13:41:50;12.82;;;6.68;;
32198;SDS011;19221;42.656;21.156;2023-06-22T13:44:16;7.93;;;6.50;;
32198;SDS011;19221;42.656;21.156;2023-06-22T13:46:42;8.30;;;6.30;;
32198;SDS011;19221;42.656;21.156;2023-06-22T13:49:08;9.57;;;6.28;;
32198;SDS011;19221;42.656;21.156;2023-06-22T13:51:35;8.70;;;6.57;;
32198;SDS011;19221;42.656;21.156;2023-06-22T13:54:01;7.35;;;6.22;;
32198;SDS011;19221;42.656;21.156;2023-06-22T13:56:27;7.35;;;6.10;;
32198;SDS011;19221;42.656;21.156;2023-06-22T13:58:53;7.22;;;6.10;;
32198;SDS011;19221;42.656;21.156;2023-06-22T14:01:18;7.57;;;5.93;;
32198;SDS011;19221;42.656;21.156;2023-06-22T14:03:44;13.55;;;7.00;;
32198;SDS011;19221;42.656;21.156;2023-06-22T14:06:12;7.13;;;6.32;;
32198;SDS011;19221;42.656;21.156;2023-06-22T14:08:37;9.63;;;6.50;;
32198;SDS011;19221;42.656;21.156;2023-06-22T14:11:03;8.63;;;6.57;;
32198;SDS011;19221;42.656;21.156;2023-06-22T14:13:29;7.25;;;6.28;;
32198;SDS011;19221;42.656;21.156;2023-06-22T14:15:54;8.98;;;6.25;;
32198;SDS011;19221;42.656;21.156;2023-06-22T14:18:20;8.82;;;6.43;;